ADDS METAR Data INFO
IDs: Format: Raw Decoded Include TAF

Data at: 1015 UTC 14 Dec 2017

KRNC 140955Z AUTO 00000KT 10SM SCT039 BKN046 00/M05 A2985 RMK A01
KRNC 140935Z AUTO 00000KT 10SM SCT043 BKN049 M00/M05 A2984 RMK A01
KRNC 140915Z AUTO 00000KT 10SM BKN046 BKN050 M00/M05 A2983 RMK A01
KRNC 140855Z AUTO 00000KT 10SM BKN050 M00/M05 A2983 RMK A01
KRNC 140835Z AUTO 23003KT 10SM BKN050 00/M05 A2983 RMK A01
KRNC 140815Z AUTO 26004KT 10SM BKN049 01/M05 A2983 RMK A01
KRNC 140755Z AUTO 23003KT 10SM SCT048 SCT055 02/M05 A2982 RMK A01
KRNC 140735Z AUTO 22003KT 10SM BKN048 03/M05 A2981 RMK A01
KRNC 140715Z AUTO 23004KT 10SM FEW043 BKN050 BKN055 03/M04 A2980 RMK A01
KRNC 140655Z AUTO 22004KT 10SM SCT049 BKN055 04/M04 A2980 RMK A01
KRNC 140635Z AUTO 23004KT 10SM BKN049 BKN055 04/M05 A2979 RMK A01
KRNC 140615Z AUTO 23005KT 10SM FEW044 SCT050 04/M05 A2979 RMK A01
KRNC 140555Z AUTO 23005KT 10SM FEW042 SCT050 SCT060 04/M05 A2979 RMK A01
KRNC 140535Z AUTO 23005KT 10SM FEW050 04/M05 A2979 RMK A01
KRNC 140515Z AUTO 24006KT 10SM FEW050 04/M05 A2979 RMK A01
KRNC 140455Z AUTO 23005G11KT 10SM FEW050 FEW055 05/M05 A2978 RMK A01
KRNC 140435Z AUTO 23005G11KT 10SM FEW049 SCT055 05/M05 A2979 RMK A01
KRNC 140415Z AUTO 22006G11KT 10SM FEW055 05/M05 A2979 RMK A01
KRNC 140355Z AUTO 22005KT 10SM CLR 05/M05 A2979 RMK A01
KRNC 140335Z AUTO 22006KT 10SM CLR 05/M05 A2979 RMK A01
KRNC 140315Z AUTO 22007G12KT 10SM CLR 05/M06 A2979 RMK A01
KRNC 140255Z AUTO 22008KT 10SM FEW050 05/M06 A2978 RMK A01
KRNC 140235Z AUTO 22006G11KT 10SM FEW050 05/M06 A2978 RMK A01
KRNC 140215Z AUTO 22007KT 10SM CLR 05/M06 A2978 RMK A01
KRNC 140155Z AUTO 22006KT 10SM CLR 05/M07 A2978 RMK A01
KRNC 140135Z AUTO 23005KT 10SM CLR 05/M07 A2979 RMK A01
KRNC 140115Z AUTO 23006KT 10SM FEW090 05/M07 A2978 RMK A01
KRNC 140055Z AUTO 24006KT 10SM BKN090 05/M08 A2978 RMK A01
KRNC 140035Z AUTO 22007G12KT 10SM SCT075 OVC090 05/M08 A2977 RMK A01
KRNC 140015Z AUTO 22008KT 10SM SCT075 OVC085 06/M08 A2977 RMK A01
KRNC 132355Z AUTO 23008G13KT 10SM FEW075 OVC085 06/M08 A2976 RMK A01
KRNC 132335Z AUTO 23009G15KT 10SM FEW070 OVC085 06/M09 A2976 RMK A01
KRNC 132315Z AUTO 23006KT 10SM SCT090 06/M09 A2976 RMK A01
KRNC 132255Z AUTO 23007G13KT 10SM CLR 07/M09 A2975 RMK A01
KRNC 132235Z AUTO 23010G17KT 10SM CLR 07/M09 A2974 RMK A01
KRNC 132215Z AUTO 23012G17KT 10SM CLR 07/M10 A2973 RMK A01
KRNC 132155Z AUTO 22013G21KT 10SM CLR 08/M10 A2972 RMK A01
KRNC 132135Z AUTO 22015G24KT 10SM CLR 08/M10 A2973 RMK A01
KRNC 132115Z AUTO 23015G28KT 10SM CLR 08/M10 A2975 RMK A01
KRNC 132055Z AUTO 21015G22KT 10SM SCT110 08/M10 A2975 RMK A01
KRNC 132035Z AUTO 22014G22KT 10SM SCT110 08/M10 A2976 RMK A01
KRNC 132015Z AUTO 22010G17KT 10SM CLR 08/M10 A2977 RMK A01
KRNC 131955Z AUTO 22009G20KT 10SM CLR 08/M10 A2979 RMK A01
KRNC 131935Z AUTO 23010G18KT 10SM CLR 08/M11 A2980 RMK A01
KRNC 131915Z AUTO 22013KT 10SM CLR 08/M11 A2981 RMK A01
KRNC 131855Z AUTO 21011G17KT 10SM CLR 07/M11 A2983 RMK A01
KRNC 131835Z AUTO 21014G21KT 10SM CLR 06/M12 A2984 RMK A01
KRNC 131815Z AUTO 22011G20KT 10SM CLR 06/M12 A2987 RMK A01
KRNC 131755Z AUTO 24010G17KT 10SM CLR 05/M12 A2989 RMK A01
KRNC 131735Z AUTO 21011G16KT 180V240 10SM CLR 05/M12 A2991 RMK A01
KRNC 131715Z AUTO 23011G18KT 10SM CLR 04/M12 A2993 RMK A01
KRNC 131655Z AUTO 22011G16KT 10SM CLR 04/M13 A2994 RMK A01
KRNC 131635Z AUTO 23010KT 10SM CLR 03/M14 A2995 RMK A01
KRNC 131615Z AUTO 21008KT 170V230 10SM CLR 03/M13 A2997 RMK A01
KRNC 131555Z AUTO 22008KT 180V250 10SM CLR 02/M13 A2998 RMK A01
KRNC 131535Z AUTO 20008KT 170V230 10SM CLR 01/M11 A3000 RMK A01
KRNC 131515Z AUTO 19004KT 10SM CLR M00/M11 A3000 RMK A01
KRNC 131455Z AUTO 21004G10KT 10SM CLR M01/M11 A3001 RMK A01
KRNC 131435Z AUTO 23004KT 10SM CLR M02/M10 A3001 RMK A01
KRNC 131415Z AUTO 22005KT 10SM CLR M03/M10 A3002 RMK A01
KRNC 131355Z AUTO 22003KT 10SM CLR M04/M10 A3002 RMK A01
KRNC 131335Z AUTO 22003KT 10SM CLR M05/M11 A3002 RMK A01
KRNC 131315Z AUTO 00000KT 10SM CLR M07/M10 A3002 RMK A01
KRNC 131255Z AUTO 00000KT 10SM CLR M07/M09 A3003 RMK A01
KRNC 131235Z AUTO 00000KT 10SM CLR M08/M09 A3002 RMK A01
KRNC 131215Z AUTO 00000KT 10SM CLR M08/M09 A3003 RMK A01
KRNC 131155Z AUTO 00000KT 10SM CLR M08/M09 A3003 RMK A01
KRNC 131135Z AUTO 00000KT 10SM CLR M08/M09 A3002 RMK A01
KRNC 131115Z AUTO 00000KT 10SM CLR M07/M09 A3002 RMK A01
KRNC 131055Z AUTO 00000KT 10SM CLR M07/M09 A3003 RMK A01
KRNC 131035Z AUTO 00000KT 10SM CLR M07/M09 A3003 RMK A01
KRNC 131015Z AUTO 00000KT 10SM CLR M07/M09 A3004 RMK A01
KRNC 130955Z AUTO 00000KT 10SM CLR M07/M09 A3004 RMK A01
KRNC 130935Z AUTO 00000KT 10SM CLR M07/M09 A3004 RMK A01
KRNC 130915Z AUTO 00000KT 10SM CLR M07/M09 A3005 RMK A01
KRNC 130855Z AUTO 00000KT 10SM CLR M07/M09 A3006 RMK A01
KRNC 130835Z AUTO 00000KT 10SM CLR M07/M09 A3006 RMK A01
KRNC 130815Z AUTO 00000KT 10SM CLR M07/M09 A3007 RMK A01
KRNC 130755Z AUTO 00000KT 10SM CLR M06/M09 A3007 RMK A01
KRNC 130735Z AUTO 00000KT 10SM CLR M07/M09 A3007 RMK A01
KRNC 130715Z AUTO 00000KT 10SM CLR M06/M10 A3007 RMK A01
KRNC 130655Z AUTO 00000KT 10SM CLR M06/M10 A3007 RMK A01
KRNC 130635Z AUTO 00000KT 10SM CLR M06/M10 A3007 RMK A01
KRNC 130615Z AUTO 00000KT 10SM CLR M06/M10 A3008 RMK A01
KRNC 130555Z AUTO 00000KT 10SM CLR M06/M10 A3007 RMK A01
KRNC 130535Z AUTO 00000KT 10SM CLR M04/M13 A3008 RMK A01
KRNC 130515Z AUTO 00000KT 10SM CLR M04/M13 A3008 RMK A01
KRNC 130455Z AUTO 00000KT 10SM CLR M03/M13 A3008 RMK A01
KRNC 130435Z AUTO 00000KT 10SM CLR M03/M12 A3009 RMK A01
KRNC 130415Z AUTO 00000KT 10SM CLR M03/M12 A3009 RMK A01
KRNC 130355Z AUTO 00000KT 10SM CLR M03/M12 A3008 RMK A01
KRNC 130335Z AUTO 00000KT 10SM CLR M03/M12 A3008 RMK A01
KRNC 130315Z AUTO 00000KT 10SM CLR M03/M12 A3009 RMK A01
KRNC 130255Z AUTO 00000KT 10SM CLR M03/M12 A3009 RMK A01
KRNC 130235Z AUTO 00000KT 10SM CLR M03/M11 A3009 RMK A01
KRNC 130215Z AUTO 00000KT 10SM CLR M02/M11 A3009 RMK A01
KRNC 130155Z AUTO 00000KT 10SM CLR M02/M11 A3008 RMK A01
KRNC 130135Z AUTO 00000KT 10SM CLR M02/M11 A3008 RMK A01
KRNC 130115Z AUTO 33004KT 10SM CLR M01/M11 A3007 RMK A01
KRNC 130055Z AUTO 35006KT 10SM CLR M01/M11 A3007 RMK A01
KRNC 130035Z AUTO 35004KT 10SM CLR M01/M11 A3007 RMK A01
KRNC 130015Z AUTO 34006KT 10SM CLR M00/M11 A3006 RMK A01
KRNC 122355Z AUTO 34005KT 10SM CLR M00/M11 A3006 RMK A01
KRNC 122335Z AUTO 33006KT 10SM CLR 00/M11 A3005 RMK A01
KRNC 122315Z AUTO 34006KT 10SM CLR 01/M12 A3004 RMK A01
KRNC 122255Z AUTO 33010KT 10SM CLR 01/M12 A3004 RMK A01
KRNC 122235Z AUTO 33009G14KT 10SM CLR 02/M11 A3003 RMK A01